createdAt,value
2019-01-25T00:02:28.195Z,100402.16
2019-01-25T00:04:59.708Z,100399.59
2019-01-25T00:07:31.248Z,100407.24
2019-01-25T00:10:02.739Z,100407.29
2019-01-25T00:12:34.421Z,100403.45
2019-01-25T00:15:06.561Z,100402.60
2019-01-25T00:17:38.206Z,100410.66
2019-01-25T00:20:10.975Z,100410.69
2019-01-25T00:22:42.501Z,100413.66
2019-01-25T00:25:13.965Z,100411.48
2019-01-25T00:27:46.022Z,100412.81
2019-01-25T00:30:18.558Z,100412.42
2019-01-25T00:32:50.155Z,100417.14
2019-01-25T00:35:21.602Z,100409.41
2019-01-25T00:37:53.078Z,100405.97
2019-01-25T00:40:24.522Z,100418.39
2019-01-25T00:42:56.353Z,100416.70
2019-01-25T00:45:27.820Z,100415.42
2019-01-25T00:47:59.297Z,100421.80
2019-01-25T00:50:30.797Z,100410.30
2019-01-25T00:53:02.271Z,100418.42
2019-01-25T00:55:33.777Z,100418.02
2019-01-25T00:58:06.054Z,100426.12
2019-01-25T01:00:37.510Z,100413.70
2019-01-25T01:03:09.035Z,100416.23
2019-01-25T01:05:40.496Z,100416.27
2019-01-25T01:08:11.981Z,100412.81
2019-01-25T01:10:43.447Z,100412.45
2019-01-25T01:13:15.242Z,100409.89
2019-01-25T01:15:46.702Z,100412.45
2019-01-25T01:18:18.151Z,100407.36
2019-01-25T01:20:49.977Z,100408.17
2019-01-25T01:23:21.481Z,100403.84
2019-01-25T01:25:52.914Z,100402.16
2019-01-25T01:28:24.559Z,100398.82
2019-01-25T01:30:56.033Z,100395.34
2019-01-25T01:33:27.735Z,100390.22
2019-01-25T01:35:59.199Z,100385.53
2019-01-25T01:38:30.699Z,100383.37
2019-01-25T01:41:02.147Z,100386.41
2019-01-25T01:43:34.736Z,100385.16
2019-01-25T01:46:06.215Z,100383.44
2019-01-25T01:48:37.688Z,100381.25
2019-01-25T01:51:09.432Z,100373.13
2019-01-25T01:53:40.878Z,100362.02
2019-01-25T01:56:12.345Z,100365.02
2019-01-25T01:58:44.209Z,100369.27
2019-01-25T02:01:15.673Z,100362.86
2019-01-25T02:03:47.133Z,100371.88
2019-01-25T02:06:18.611Z,100371.43
2019-01-25T02:08:50.126Z,100367.11
2019-01-25T02:11:21.575Z,100353.88
2019-01-25T02:13:54.527Z,100356.00
2019-01-25T02:16:25.973Z,100344.02
2019-01-25T02:18:57.435Z,100337.66
2019-01-25T02:21:28.900Z,100342.34
2019-01-25T02:24:00.427Z,100340.67
2019-01-25T02:26:31.907Z,100341.91
2019-01-25T02:29:03.742Z,100336.39
2019-01-25T02:31:35.229Z,100344.52
2019-01-25T02:34:06.774Z,100342.83
2019-01-25T02:36:38.406Z,100333.02
2019-01-25T02:39:10.506Z,100335.59
2019-01-25T02:41:42.012Z,100328.33
2019-01-25T02:44:13.658Z,100336.82
2019-01-25T02:46:45.146Z,100330.42
2019-01-25T02:49:16.568Z,100329.53
2019-01-25T02:51:48.056Z,100331.25
2019-01-25T02:54:19.508Z,100321.48
2019-01-25T02:56:50.977Z,100331.26
2019-01-25T02:59:22.700Z,100326.08
2019-01-25T03:01:54.149Z,100329.58
2019-01-25T03:04:25.638Z,100333.38
2019-01-25T03:06:57.089Z,100326.56
2019-01-25T03:09:28.570Z,100333.38
2019-01-25T03:12:00.048Z,100339.33
2019-01-25T03:14:31.728Z,100323.06
2019-01-25T03:17:03.184Z,100322.27
2019-01-25T03:19:34.659Z,100317.98
2019-01-25T03:22:06.086Z,100319.26
2019-01-25T03:24:37.559Z,100313.70
2019-01-25T03:27:09.008Z,100315.41
2019-01-25T03:29:40.647Z,100310.28
2019-01-25T03:32:12.157Z,100311.97
2019-01-25T03:34:43.970Z,100305.55
2019-01-25T03:37:15.432Z,100306.90
2019-01-25T03:39:48.185Z,100316.70
2019-01-25T03:42:19.625Z,100306.82
2019-01-25T03:44:51.315Z,100310.29
2019-01-25T03:47:22.787Z,100311.98
2019-01-25T03:49:54.251Z,100310.29
2019-01-25T03:52:25.690Z,100309.05
2019-01-25T03:54:57.181Z,100305.22
2019-01-25T03:57:28.635Z,100300.53
2019-01-25T04:00:00.382Z,100308.62
2019-01-25T04:02:31.839Z,100303.44
2019-01-25T04:05:03.310Z,100304.70
2019-01-25T04:07:34.788Z,100305.55
2019-01-25T04:10:08.313Z,100305.94
2019-01-25T04:12:39.796Z,100307.28
2019-01-25T04:15:15.359Z,100316.24
2019-01-25T04:17:46.866Z,100311.58
2019-01-25T04:20:18.669Z,100311.13
2019-01-25T04:22:50.498Z,100311.63
2019-01-25T04:25:23.009Z,100303.89
2019-01-25T04:27:54.490Z,100303.44
2019-01-25T04:30:28.752Z,100301.82
2019-01-25T04:33:00.245Z,100301.82
2019-01-25T04:35:31.906Z,100308.17
2019-01-25T04:38:03.370Z,100302.64
2019-01-25T04:40:34.994Z,100300.93
2019-01-25T04:43:06.452Z,100300.03
2019-01-25T04:45:38.080Z,100295.28
2019-01-25T04:48:14.552Z,100296.14
2019-01-25T04:50:46.025Z,100300.40
2019-01-25T04:53:17.462Z,100302.16
2019-01-25T04:55:48.972Z,100302.99
2019-01-25T04:58:21.300Z,100304.31
2019-01-25T05:00:52.972Z,100302.59
2019-01-25T05:03:25.594Z,100301.70
2019-01-25T05:05:57.190Z,100300.41
2019-01-25T05:08:28.640Z,100301.23
2019-01-25T05:11:00.154Z,100306.38
2019-01-25T05:13:31.782Z,100311.50
2019-01-25T05:16:05.265Z,100306.39
2019-01-25T05:18:36.707Z,100303.88
2019-01-25T05:21:08.158Z,100311.56
2019-01-25T05:23:39.668Z,100308.16
2019-01-25T05:26:11.118Z,100315.02
2019-01-25T05:28:42.609Z,100312.80
2019-01-25T05:31:14.726Z,100308.10
2019-01-25T05:33:54.511Z,100308.11
2019-01-25T05:36:26.218Z,100311.06
2019-01-25T05:38:57.735Z,100303.44
2019-01-25T05:41:29.253Z,100304.27
2019-01-25T05:44:00.786Z,100296.18
2019-01-25T05:46:32.618Z,100291.89
2019-01-25T05:49:04.121Z,100292.73
2019-01-25T05:51:35.621Z,100287.20
2019-01-25T05:54:07.191Z,100286.75
2019-01-25T05:56:44.034Z,100285.87
2019-01-25T05:59:15.519Z,100294.84
2019-01-25T06:01:47.482Z,100294.84
2019-01-25T06:04:18.981Z,100303.80
2019-01-25T06:06:50.437Z,100295.75
2019-01-25T06:09:22.645Z,100296.56
2019-01-25T06:11:54.108Z,100294.00
2019-01-25T06:14:25.572Z,100288.81
2019-01-25T06:16:57.031Z,100291.45
2019-01-25T06:19:30.224Z,100296.57
2019-01-25T06:22:01.673Z,100292.73
2019-01-25T06:24:33.169Z,100297.78
2019-01-25T06:27:04.636Z,100297.41
2019-01-25T06:29:36.469Z,100302.97
2019-01-25T06:32:07.963Z,100304.66
2019-01-25T06:34:39.403Z,100301.30
2019-01-25T06:37:11.179Z,100287.98
2019-01-25T06:39:42.658Z,100288.05
2019-01-25T06:42:14.207Z,100289.34
2019-01-25T06:44:45.670Z,100288.42
2019-01-25T06:47:17.354Z,100290.17
2019-01-25T06:49:48.823Z,100293.18
2019-01-25T06:52:20.305Z,100296.23
2019-01-25T06:54:51.764Z,100291.88
2019-01-25T06:57:33.340Z,100292.71
2019-01-25T07:00:05.922Z,100289.73
2019-01-25T07:02:40.116Z,100290.53
2019-01-25T07:05:11.667Z,100287.14
2019-01-25T07:07:45.391Z,100285.02
2019-01-25T07:10:19.018Z,100287.61
2019-01-25T07:12:50.481Z,100281.63
2019-01-25T07:15:23.950Z,100282.02
2019-01-25T07:17:55.774Z,100279.89
2019-01-25T07:20:27.268Z,100281.25
2019-01-25T07:22:58.715Z,100282.09
2019-01-25T07:25:30.247Z,100284.22
2019-01-25T07:28:01.744Z,100282.46
2019-01-25T07:30:33.269Z,100283.74
2019-01-25T07:33:04.800Z,100281.70
2019-01-25T07:35:36.205Z,100281.19
2019-01-25T07:38:07.858Z,100286.75
2019-01-25T07:40:39.342Z,100286.70
2019-01-25T07:43:10.822Z,100288.36
2019-01-25T07:45:42.473Z,100283.66
2019-01-25T07:48:14.263Z,100284.06
2019-01-25T07:50:45.772Z,100277.23
2019-01-25T07:53:17.306Z,100282.77
2019-01-25T07:55:48.856Z,100286.53
2019-01-25T07:58:20.419Z,100284.01
2019-01-25T08:00:51.877Z,100277.62
2019-01-25T08:03:23.694Z,100283.56
2019-01-25T08:05:55.270Z,100282.30
2019-01-25T08:08:26.776Z,100281.45
2019-01-25T08:10:58.362Z,100275.39
2019-01-25T08:13:29.808Z,100279.16
2019-01-25T08:16:01.328Z,100283.45
2019-01-25T08:18:33.162Z,100279.62
2019-01-25T08:21:04.702Z,100284.20
2019-01-25T08:23:36.211Z,100274.48
2019-01-25T08:26:07.761Z,100276.03
2019-01-25T08:28:39.372Z,100276.98
2019-01-25T08:31:10.883Z,100279.41
2019-01-25T08:33:42.619Z,100280.20
2019-01-25T08:36:14.212Z,100278.01
2019-01-25T08:38:45.986Z,100277.30
2019-01-25T08:41:17.544Z,100283.25
2019-01-25T08:43:49.081Z,100280.30
2019-01-25T08:46:20.679Z,100263.50
2019-01-25T08:48:52.173Z,100284.78
2019-01-25T08:51:23.757Z,100290.95
2019-01-25T08:53:55.435Z,100299.84
2019-01-25T08:56:27.115Z,100293.51
2019-01-25T08:58:58.913Z,100296.19
2019-01-25T09:01:30.732Z,100290.69
2019-01-25T09:04:02.449Z,100295.30
2019-01-25T09:06:33.918Z,100291.97
2019-01-25T09:09:09.473Z,100293.07
2019-01-25T09:11:40.974Z,100291.77
2019-01-25T09:14:12.476Z,100290.03
2019-01-25T09:16:44.089Z,100292.21
2019-01-25T09:19:15.783Z,100287.46
2019-01-25T09:21:47.366Z,100288.89
2019-01-25T09:24:18.868Z,100285.83
2019-01-25T09:26:50.377Z,100294.83
2019-01-25T09:29:21.907Z,100291.74
2019-01-25T09:31:53.435Z,100290.57
2019-01-25T09:34:24.981Z,100291.33
2019-01-25T09:36:56.450Z,100289.52
2019-01-25T09:39:28.182Z,100290.03
2019-01-25T09:41:59.695Z,100289.28
2019-01-25T09:44:31.151Z,100289.62
2019-01-25T09:47:02.636Z,100283.09
2019-01-25T09:49:34.453Z,100282.40
2019-01-25T09:52:05.966Z,100273.94
2019-01-25T09:54:37.455Z,100272.65
2019-01-25T09:57:09.227Z,100264.92
2019-01-25T09:59:42.309Z,100267.03
2019-01-25T10:02:13.976Z,100260.95
2019-01-25T10:04:45.473Z,100266.20
2019-01-25T10:07:16.971Z,100266.54
2019-01-25T10:09:48.473Z,100256.42
2019-01-25T10:12:19.974Z,100255.13
2019-01-25T10:14:51.387Z,100244.52
2019-01-25T10:17:22.900Z,100244.84
2019-01-25T10:19:54.607Z,100241.80
2019-01-25T10:22:26.107Z,100240.05
2019-01-25T10:24:57.603Z,100238.20
2019-01-25T10:27:29.094Z,100235.75
2019-01-25T10:30:00.619Z,100236.22
2019-01-25T10:32:32.132Z,100239.25
2019-01-25T10:35:03.958Z,100230.84
2019-01-25T10:37:35.450Z,100235.16
2019-01-25T10:40:10.789Z,100230.70
2019-01-25T10:42:45.490Z,100228.66
2019-01-25T10:45:36.628Z,100228.22
2019-01-25T10:48:09.273Z,100218.78
2019-01-25T10:50:41.036Z,100222.30
2019-01-25T10:53:12.535Z,100216.63
2019-01-25T10:55:44.025Z,100219.64
2019-01-25T10:58:15.558Z,100220.84
2019-01-25T11:00:47.006Z,100210.31
2019-01-25T11:03:19.756Z,100205.99
2019-01-25T11:05:51.698Z,100210.63
2019-01-25T11:08:23.265Z,100207.63
2019-01-25T11:10:54.769Z,100201.17
2019-01-25T11:13:26.333Z,100206.13
2019-01-25T11:15:58.056Z,100205.20
2019-01-25T11:18:29.567Z,100205.22
2019-01-25T11:21:01.281Z,100206.30
2019-01-25T11:23:32.757Z,100202.76
2019-01-25T11:26:04.243Z,100205.13
2019-01-25T11:28:35.881Z,100201.08
2019-01-25T11:31:07.338Z,100202.77
2019-01-25T11:33:38.839Z,100201.87
2019-01-25T11:36:10.703Z,100207.27
2019-01-25T11:38:42.182Z,100203.94
2019-01-25T11:41:13.678Z,100205.98
2019-01-25T11:43:45.202Z,100199.55
2019-01-25T11:46:16.670Z,100200.34
2019-01-25T11:48:48.287Z,100197.78
2019-01-25T11:51:20.117Z,100191.71
2019-01-25T11:53:51.733Z,100193.74
2019-01-25T11:56:23.322Z,100193.36
2019-01-25T11:58:54.844Z,100191.02
2019-01-25T12:01:26.375Z,100188.89
2019-01-25T12:03:57.882Z,100187.71
2019-01-25T12:06:29.644Z,100187.25
2019-01-25T12:09:01.143Z,100184.30
2019-01-25T12:11:34.450Z,100180.08
2019-01-25T12:14:06.065Z,100183.85
2019-01-25T12:16:37.572Z,100173.60
2019-01-25T12:19:09.083Z,100179.66
2019-01-25T12:21:40.773Z,100175.92
2019-01-25T12:24:12.352Z,100177.14
2019-01-25T12:26:44.989Z,100176.66
2019-01-25T12:29:16.805Z,100173.58
2019-01-25T12:31:48.372Z,100174.84
2019-01-25T12:34:19.918Z,100172.23
2019-01-25T12:36:51.628Z,100166.13
2019-01-25T12:39:23.116Z,100173.46
2019-01-25T12:41:54.697Z,100170.16
2019-01-25T12:44:26.191Z,100174.02
2019-01-25T12:46:57.741Z,100170.02
2019-01-25T12:49:29.198Z,100175.23
2019-01-25T12:52:08.497Z,100173.17
2019-01-25T12:54:40.038Z,100171.80
2019-01-25T12:57:11.637Z,100170.53
2019-01-25T12:59:43.097Z,100169.37
2019-01-25T13:02:14.622Z,100169.67
2019-01-25T13:04:46.112Z,100163.30
2019-01-25T13:07:17.876Z,100169.31
2019-01-25T13:09:49.372Z,100172.23
2019-01-25T13:12:25.103Z,100171.38
2019-01-25T13:14:54.079Z,100173.95
2019-01-25T13:17:25.638Z,100173.38
2019-01-25T13:19:58.871Z,100180.27
2019-01-25T13:22:32.590Z,100176.41
2019-01-25T13:25:04.281Z,100184.62
2019-01-25T13:27:35.832Z,100178.55
2019-01-25T13:30:20.775Z,100182.48
2019-01-25T13:32:52.306Z,100185.05
2019-01-25T13:35:23.821Z,100188.89
2019-01-25T13:37:55.636Z,100190.97
2019-01-25T13:40:27.227Z,100187.97
2019-01-25T13:42:58.839Z,100185.84
2019-01-25T13:45:30.435Z,100189.72
2019-01-25T13:48:01.926Z,100186.72
2019-01-25T13:50:33.453Z,100197.59
2019-01-25T13:53:05.062Z,100192.14
2019-01-25T13:55:36.581Z,100195.89
2019-01-25T13:58:08.372Z,100196.42
2019-01-25T14:00:39.922Z,100202.02
2019-01-25T14:03:11.422Z,100196.87
2019-01-25T14:05:42.936Z,100201.16
2019-01-25T14:08:14.462Z,100194.30
2019-01-25T14:10:45.978Z,100198.20
2019-01-25T14:13:17.625Z,100195.20
2019-01-25T14:15:49.184Z,100194.31
2019-01-25T14:18:20.671Z,100192.17
2019-01-25T14:20:52.232Z,100196.81
2019-01-25T14:23:23.957Z,100195.52
2019-01-25T14:25:56.868Z,100188.62
2019-01-25T14:28:28.460Z,100185.62
2019-01-25T14:31:00.048Z,100192.02
2019-01-25T14:33:31.705Z,100187.84
2019-01-25T14:36:03.459Z,100191.70
2019-01-25T14:38:35.236Z,100193.13
2019-01-25T14:41:06.779Z,100193.13
2019-01-25T14:43:38.565Z,100193.53
2019-01-25T14:46:10.111Z,100184.54
2019-01-25T14:48:41.601Z,100175.15
2019-01-25T14:51:13.476Z,100180.30
2019-01-25T14:53:45.403Z,100180.33
2019-01-25T14:56:17.199Z,100175.28
2019-01-25T14:58:48.745Z,100183.52
2019-01-25T15:01:20.328Z,100180.03
2019-01-25T15:03:51.800Z,100179.61
2019-01-25T15:06:23.305Z,100181.85
2019-01-25T15:08:55.001Z,100186.63
2019-01-25T15:11:26.515Z,100188.88
2019-01-25T15:14:02.521Z,100194.62
2019-01-25T15:16:31.557Z,100190.65
2019-01-25T15:19:03.050Z,100196.23
2019-01-25T15:21:34.624Z,100189.84
2019-01-25T15:24:06.520Z,100189.73
2019-01-25T15:26:38.024Z,100184.05
2019-01-25T15:29:09.581Z,100183.97
2019-01-25T15:31:41.089Z,100186.14
2019-01-25T15:34:12.647Z,100202.48
2019-01-25T15:36:44.188Z,100201.87
2019-01-25T15:39:15.883Z,100204.09
2019-01-25T15:41:47.357Z,100207.98
2019-01-25T15:44:19.233Z,100204.07
2019-01-25T15:46:50.776Z,100209.30
2019-01-25T15:49:22.324Z,100208.00
2019-01-25T15:51:53.860Z,100209.70
2019-01-25T15:54:25.850Z,100214.98
2019-01-25T15:56:57.546Z,100219.31
2019-01-25T15:59:29.050Z,100219.40
2019-01-25T16:02:00.635Z,100217.34
2019-01-25T16:04:35.071Z,100213.00
2019-01-25T16:07:06.929Z,100217.56
2019-01-25T16:09:38.752Z,100218.34
2019-01-25T16:12:10.274Z,100213.93
2019-01-25T16:14:41.916Z,100211.80
2019-01-25T16:17:13.502Z,100211.78
2019-01-25T16:19:45.556Z,100217.81
2019-01-25T16:22:17.288Z,100204.95
2019-01-25T16:24:48.923Z,100209.44
2019-01-25T16:27:20.528Z,100214.27
2019-01-25T16:29:52.173Z,100207.30
2019-01-25T16:32:24.836Z,100208.20
2019-01-25T16:34:56.570Z,100202.26
2019-01-25T16:37:29.080Z,100215.49
2019-01-25T16:40:00.822Z,100206.17
2019-01-25T16:42:32.670Z,100219.53
2019-01-25T16:45:04.971Z,100220.75
2019-01-25T16:47:36.763Z,100229.34
2019-01-25T16:50:08.902Z,100231.42
2019-01-25T16:52:40.541Z,100234.45
2019-01-25T16:55:13.505Z,100233.67
2019-01-25T16:57:45.152Z,100235.30
2019-01-25T17:00:26.855Z,100236.19
2019-01-25T17:02:58.691Z,100241.42
2019-01-25T17:05:30.826Z,100247.30
2019-01-25T17:08:02.858Z,100237.97
2019-01-25T17:10:34.975Z,100228.59
2019-01-25T17:13:07.241Z,100221.21
2019-01-25T17:15:39.439Z,100225.73
2019-01-25T17:18:11.241Z,100226.97
2019-01-25T17:20:43.022Z,100217.55
2019-01-25T17:23:14.696Z,100221.81
2019-01-25T17:25:46.336Z,100220.48
2019-01-25T17:28:18.099Z,100217.98
2019-01-25T17:30:49.807Z,100215.41
2019-01-25T17:33:21.419Z,100214.06
2019-01-25T17:35:53.068Z,100212.39
2019-01-25T17:38:24.712Z,100207.63
2019-01-25T17:40:56.652Z,100204.62
2019-01-25T17:43:28.310Z,100196.89
2019-01-25T17:45:59.859Z,100197.25
2019-01-25T17:48:31.406Z,100192.58
2019-01-25T17:51:03.070Z,100195.06
2019-01-25T17:53:34.723Z,100194.59
2019-01-25T17:56:06.829Z,100189.91
2019-01-25T17:58:39.668Z,100183.59
2019-01-25T18:01:11.324Z,100176.20
2019-01-25T18:03:42.961Z,100176.64
2019-01-25T18:06:14.656Z,100180.48
2019-01-25T18:08:46.296Z,100180.45
2019-01-25T18:11:17.993Z,100183.74
2019-01-25T18:13:49.575Z,100178.69
2019-01-25T18:16:21.160Z,100177.42
2019-01-25T18:18:52.740Z,100174.36
2019-01-25T18:21:24.259Z,100169.27
2019-01-25T18:23:55.851Z,100162.41
2019-01-25T18:26:27.793Z,100158.08
2019-01-25T18:29:07.130Z,100159.69
2019-01-25T18:31:38.654Z,100163.14
2019-01-25T18:34:10.251Z,100163.97
2019-01-25T18:36:41.959Z,100163.05
2019-01-25T18:39:13.617Z,100162.75
2019-01-25T18:41:45.920Z,100162.42
2019-01-25T18:44:17.971Z,100164.52
2019-01-25T18:46:49.671Z,100163.88
2019-01-25T18:49:22.123Z,100159.70
2019-01-25T18:51:54.149Z,100161.34
2019-01-25T18:54:25.837Z,100162.73
2019-01-25T18:56:57.608Z,100155.42
2019-01-25T18:59:29.152Z,100158.41
2019-01-25T19:02:00.680Z,100157.18
2019-01-25T19:04:32.256Z,100160.90
2019-01-25T19:07:03.842Z,100159.28
2019-01-25T19:09:36.638Z,100158.91
2019-01-25T19:12:08.174Z,100162.27
2019-01-25T19:14:40.401Z,100159.17
2019-01-25T19:17:12.175Z,100162.63
2019-01-25T19:19:43.819Z,100161.24
2019-01-25T19:22:15.346Z,100153.95
2019-01-25T19:24:46.914Z,100160.42
2019-01-25T19:27:18.843Z,100150.28
2019-01-25T19:29:50.543Z,100156.67
2019-01-25T19:32:22.088Z,100160.98
2019-01-25T19:34:53.750Z,100163.43
2019-01-25T19:37:25.328Z,100161.38
2019-01-25T19:39:57.036Z,100156.27
2019-01-25T19:42:28.878Z,100159.61
2019-01-25T19:45:00.572Z,100160.88
2019-01-25T19:47:32.881Z,100161.67
2019-01-25T19:50:05.029Z,100162.03
2019-01-25T19:52:36.648Z,100164.58
2019-01-25T19:55:12.221Z,100169.30
2019-01-25T19:57:43.916Z,100156.08
2019-01-25T20:00:25.757Z,100158.19
2019-01-25T20:02:57.386Z,100159.44
2019-01-25T20:05:30.568Z,100152.94
2019-01-25T20:08:02.225Z,100157.76
2019-01-25T20:10:35.447Z,100160.06
2019-01-25T20:13:08.266Z,100160.80
2019-01-25T20:15:40.024Z,100163.36
2019-01-25T20:18:11.801Z,100163.77
2019-01-25T20:20:43.421Z,100165.44
2019-01-25T20:23:14.983Z,100161.24
2019-01-25T20:25:46.650Z,100163.30
2019-01-25T20:28:18.664Z,100168.45
2019-01-25T20:30:50.306Z,100163.30
2019-01-25T20:33:22.001Z,100174.14
2019-01-25T20:35:53.746Z,100172.91
2019-01-25T20:38:25.323Z,100166.88
2019-01-25T20:40:57.280Z,100172.05
2019-01-25T20:43:29.034Z,100168.12
2019-01-25T20:46:00.600Z,100162.14
2019-01-25T20:48:32.377Z,100165.56
2019-01-25T20:51:04.228Z,100165.20
2019-01-25T20:53:35.783Z,100163.48
2019-01-25T20:56:09.548Z,100155.84
2019-01-25T20:58:42.723Z,100155.72
2019-01-25T21:01:14.432Z,100146.06
2019-01-25T21:03:46.053Z,100150.30
2019-01-25T21:06:17.630Z,100146.45
2019-01-25T21:08:49.227Z,100144.78
2019-01-25T21:11:20.832Z,100148.98
2019-01-25T21:13:52.927Z,100152.00
2019-01-25T21:16:26.659Z,100159.75
2019-01-25T21:18:59.612Z,100167.08
2019-01-25T21:21:31.192Z,100160.56
2019-01-25T21:24:02.810Z,100161.91
2019-01-25T21:26:34.442Z,100161.14
2019-01-25T21:29:06.012Z,100154.80
2019-01-25T21:31:37.487Z,100153.88
2019-01-25T21:34:09.082Z,100157.63
2019-01-25T21:36:40.660Z,100161.46
2019-01-25T21:39:12.484Z,100153.81
2019-01-25T21:41:44.037Z,100160.81
2019-01-25T21:44:15.866Z,100156.55
2019-01-25T21:46:47.483Z,100157.14
2019-01-25T21:49:19.541Z,100154.59
2019-01-25T21:51:51.188Z,100157.97
2019-01-25T21:54:22.773Z,100165.61
2019-01-25T21:56:54.302Z,100161.00
2019-01-25T21:59:26.424Z,100166.52
2019-01-25T22:01:57.964Z,100156.72
2019-01-25T22:04:29.509Z,100153.36
2019-01-25T22:07:01.102Z,100149.09
2019-01-25T22:09:32.751Z,100144.86
2019-01-25T22:12:04.584Z,100153.38
2019-01-25T22:14:36.356Z,100154.27
2019-01-25T22:17:07.952Z,100159.87
2019-01-25T22:19:39.882Z,100150.06
2019-01-25T22:22:11.474Z,100145.83
2019-01-25T22:24:43.267Z,100137.67
2019-01-25T22:27:14.939Z,100138.11
2019-01-25T22:29:46.822Z,100134.66
2019-01-25T22:32:18.439Z,100131.67
2019-01-25T22:34:50.055Z,100135.10
2019-01-25T22:37:23.174Z,100135.55
2019-01-25T22:39:54.720Z,100135.09
2019-01-25T22:42:26.318Z,100133.83
2019-01-25T22:44:57.851Z,100126.59
2019-01-25T22:47:29.361Z,100125.65
2019-01-25T22:50:00.939Z,100125.19
2019-01-25T22:52:32.663Z,100119.56
2019-01-25T22:55:04.269Z,100115.63
2019-01-25T22:57:36.080Z,100116.52
2019-01-25T23:00:51.064Z,100113.49
2019-01-25T23:04:04.240Z,100108.00
2019-01-25T23:07:03.991Z,100109.67
2019-01-25T23:10:03.901Z,100102.80
2019-01-25T23:12:35.912Z,100096.39
2019-01-25T23:15:10.397Z,100093.74
2019-01-25T23:17:41.917Z,100097.21
2019-01-25T23:20:14.323Z,100089.47
2019-01-25T23:22:45.979Z,100087.36
2019-01-25T23:25:17.452Z,100095.56
2019-01-25T23:27:49.064Z,100093.84
2019-01-25T23:30:21.130Z,100093.82
2019-01-25T23:32:52.659Z,100092.08
2019-01-25T23:35:24.142Z,100094.55
2019-01-25T23:37:55.630Z,100100.89
2019-01-25T23:40:27.121Z,100100.52
2019-01-25T23:42:58.642Z,100100.12
2019-01-25T23:45:30.296Z,100097.92
2019-01-25T23:48:01.935Z,100094.47
2019-01-25T23:50:33.693Z,100088.81
2019-01-25T23:53:05.373Z,100081.99
2019-01-25T23:55:36.859Z,100073.83
2019-01-25T23:58:08.470Z,100073.84
